createdAt,value
2023-05-09T00:00:11.245Z,12.27
2023-05-09T00:02:41.438Z,11.00
2023-05-09T00:05:11.555Z,12.30
2023-05-09T00:07:40.444Z,11.73
2023-05-09T00:10:09.409Z,11.97
2023-05-09T00:12:38.083Z,11.87
2023-05-09T00:15:08.469Z,12.00
2023-05-09T00:17:38.786Z,11.70
2023-05-09T00:20:12.584Z,12.13
2023-05-09T00:22:42.840Z,12.40
2023-05-09T00:25:12.765Z,12.03
2023-05-09T00:27:41.415Z,12.80
2023-05-09T00:30:10.826Z,12.47
2023-05-09T00:32:40.382Z,12.60
2023-05-09T00:35:10.312Z,11.83
2023-05-09T00:37:38.818Z,12.50
2023-05-09T00:40:10.030Z,12.03
2023-05-09T00:42:38.825Z,12.43
2023-05-09T00:45:08.424Z,12.17
2023-05-09T00:47:36.895Z,12.23
2023-05-09T00:50:06.127Z,11.93
2023-05-09T00:52:34.777Z,12.07
2023-05-09T00:55:04.872Z,11.50
2023-05-09T00:57:34.670Z,12.37
2023-05-09T01:00:05.074Z,12.00
2023-05-09T01:02:33.574Z,11.87
2023-05-09T01:05:02.405Z,12.23
2023-05-09T01:07:38.585Z,12.43
2023-05-09T01:10:12.898Z,12.30
2023-05-09T01:12:55.018Z,12.10
2023-05-09T01:15:30.662Z,12.20
2023-05-09T01:18:04.845Z,12.20
2023-05-09T01:20:37.114Z,12.17
2023-05-09T01:23:22.312Z,12.50
2023-05-09T01:26:04.714Z,11.87
2023-05-09T01:29:06.382Z,11.80
2023-05-09T01:31:39.544Z,12.33
2023-05-09T01:34:10.344Z,12.30
2023-05-09T01:36:41.286Z,12.07
2023-05-09T01:39:13.689Z,12.00
2023-05-09T01:41:42.245Z,12.10
2023-05-09T01:44:13.583Z,12.30
2023-05-09T01:46:45.239Z,11.93
2023-05-09T01:49:14.824Z,12.60
2023-05-09T01:51:44.526Z,11.90
2023-05-09T01:54:14.926Z,12.17
2023-05-09T01:56:45.095Z,11.93
2023-05-09T01:59:16.437Z,11.53
2023-05-09T02:01:48.040Z,11.57
2023-05-09T02:04:18.360Z,11.87
2023-05-09T02:06:51.429Z,10.90
2023-05-09T02:09:20.583Z,12.20
2023-05-09T02:11:49.022Z,11.60
2023-05-09T02:14:17.507Z,11.87
2023-05-09T02:16:47.683Z,11.53
2023-05-09T02:19:16.956Z,11.27
2023-05-09T02:21:45.619Z,11.40
2023-05-09T02:24:14.212Z,12.37
2023-05-09T02:26:43.569Z,12.37
2023-05-09T02:29:13.117Z,11.20
2023-05-09T02:31:44.164Z,11.93
2023-05-09T02:34:15.080Z,11.40
2023-05-09T02:36:43.765Z,11.97
2023-05-09T02:39:12.453Z,12.63
2023-05-09T02:41:40.997Z,12.03
2023-05-09T02:44:09.411Z,12.50
2023-05-09T02:46:37.759Z,12.20
2023-05-09T02:49:06.097Z,11.83
2023-05-09T02:51:36.529Z,12.67
2023-05-09T02:54:06.493Z,11.87
2023-05-09T02:56:35.038Z,12.50
2023-05-09T02:59:03.512Z,12.83
2023-05-09T03:01:32.024Z,12.80
2023-05-09T03:04:00.443Z,12.43
2023-05-09T03:06:28.926Z,12.73
2023-05-09T03:08:58.731Z,12.97
2023-05-09T03:11:27.780Z,12.47
2023-05-09T03:13:56.229Z,12.73
2023-05-09T03:16:24.958Z,13.43
2023-05-09T03:18:53.484Z,13.40
2023-05-09T03:21:22.131Z,13.67
2023-05-09T03:23:50.622Z,13.73
2023-05-09T03:26:20.930Z,13.73
2023-05-09T03:28:50.221Z,14.53
2023-05-09T03:31:18.791Z,13.90
2023-05-09T03:33:47.194Z,13.67
2023-05-09T03:36:16.554Z,14.33
2023-05-09T03:38:45.894Z,14.30
2023-05-09T03:41:17.550Z,12.93
2023-05-09T03:43:49.469Z,13.03
2023-05-09T03:46:17.960Z,13.70
2023-05-09T03:48:49.344Z,13.53
2023-05-09T03:51:18.707Z,13.70
2023-05-09T03:53:48.293Z,13.40
2023-05-09T03:56:17.317Z,13.37
2023-05-09T03:58:52.885Z,13.30
2023-05-09T04:01:21.869Z,14.60
2023-05-09T04:03:50.480Z,14.00
2023-05-09T04:06:19.333Z,12.73
2023-05-09T04:08:47.811Z,13.10
2023-05-09T04:11:16.228Z,13.30
2023-05-09T04:13:47.739Z,12.87
2023-05-09T04:16:28.162Z,12.87
2023-05-09T04:18:56.650Z,13.43
2023-05-09T04:21:25.157Z,13.07
2023-05-09T04:23:56.768Z,13.20
2023-05-09T04:26:32.516Z,13.73
2023-05-09T04:29:01.773Z,13.23
2023-05-09T04:31:31.726Z,12.93
2023-05-09T04:34:01.566Z,13.17
2023-05-09T04:36:34.152Z,12.67
2023-05-09T04:39:02.695Z,13.63
2023-05-09T04:41:32.554Z,12.77
2023-05-09T04:44:02.119Z,12.13
2023-05-09T04:46:32.495Z,13.20
2023-05-09T04:49:00.993Z,13.37
2023-05-09T04:51:29.366Z,13.23
2023-05-09T04:53:57.679Z,12.50
2023-05-09T04:56:31.998Z,12.27
2023-05-09T04:59:01.739Z,12.60
2023-05-09T05:01:32.610Z,13.20
2023-05-09T05:04:01.896Z,12.10
2023-05-09T05:06:33.047Z,12.47
2023-05-09T05:09:01.955Z,13.07
2023-05-09T05:11:30.447Z,12.60
2023-05-09T05:13:59.177Z,12.43
2023-05-09T05:16:28.247Z,12.83
2023-05-09T05:18:58.203Z,12.60
2023-05-09T05:21:27.253Z,12.60
2023-05-09T05:23:55.734Z,11.77
2023-05-09T05:26:24.186Z,11.73
2023-05-09T05:28:55.646Z,11.43
2023-05-09T05:31:24.597Z,12.47
2023-05-09T05:33:53.031Z,12.07
2023-05-09T05:36:24.064Z,11.67
2023-05-09T05:38:52.736Z,11.50
2023-05-09T05:41:21.299Z,11.77
2023-05-09T05:43:53.476Z,12.07
2023-05-09T05:46:22.835Z,11.33
2023-05-09T05:48:51.373Z,10.87
2023-05-09T05:51:19.853Z,11.73
2023-05-09T05:53:49.548Z,11.20
2023-05-09T05:56:18.043Z,13.20
2023-05-09T05:58:46.720Z,12.50
2023-05-09T06:01:15.177Z,12.80
2023-05-09T06:03:43.719Z,10.90
2023-05-09T06:06:12.378Z,11.50
2023-05-09T06:08:40.857Z,11.70
2023-05-09T06:11:10.859Z,11.30
2023-05-09T06:13:39.788Z,12.00
2023-05-09T06:16:18.421Z,11.77
2023-05-09T06:18:53.417Z,11.60
2023-05-09T06:21:24.400Z,11.77
2023-05-09T06:26:26.410Z,12.27
2023-05-09T06:28:54.817Z,12.07
2023-05-09T06:31:24.910Z,11.30
2023-05-09T06:33:54.709Z,11.20
2023-05-09T06:36:23.216Z,19.13
2023-05-09T06:38:51.621Z,13.17
2023-05-09T06:41:19.962Z,12.80
2023-05-09T06:43:50.004Z,11.30
2023-05-09T06:46:18.615Z,11.50
2023-05-09T06:48:47.122Z,12.47
2023-05-09T06:51:16.483Z,11.27
2023-05-09T06:53:44.918Z,11.27
2023-05-09T06:56:13.479Z,11.47
2023-05-09T06:58:44.240Z,10.97
2023-05-09T07:01:14.175Z,11.47
2023-05-09T07:03:42.658Z,11.63
2023-05-09T07:06:11.045Z,10.80
2023-05-09T07:08:39.536Z,11.40
2023-05-09T07:11:07.892Z,19.00
2023-05-09T07:13:36.628Z,13.87
2023-05-09T07:16:05.064Z,11.07
2023-05-09T07:18:34.810Z,10.63
2023-05-09T07:21:03.475Z,10.50
2023-05-09T07:23:31.858Z,10.73
2023-05-09T07:26:01.549Z,9.70
2023-05-09T07:28:30.141Z,9.70
2023-05-09T07:30:58.514Z,9.67
2023-05-09T07:33:26.959Z,9.67
2023-05-09T07:35:56.729Z,9.90
2023-05-09T07:38:25.239Z,9.93
2023-05-09T07:40:54.132Z,10.20
2023-05-09T07:43:22.512Z,9.87
2023-05-09T07:45:51.035Z,10.00
2023-05-09T07:48:19.444Z,10.37
2023-05-09T07:50:47.878Z,10.10
2023-05-09T07:53:17.625Z,9.83
2023-05-09T07:55:48.448Z,9.63
2023-05-09T07:58:16.918Z,9.87
2023-05-09T08:00:45.362Z,8.83
2023-05-09T08:03:14.026Z,9.40
2023-05-09T08:05:42.499Z,9.30
2023-05-09T08:08:10.894Z,9.00
2023-05-09T08:10:40.750Z,9.52
2023-05-09T08:13:09.308Z,8.80
2023-05-09T08:15:37.827Z,9.80
2023-05-09T08:18:06.690Z,8.17
2023-05-09T08:20:35.213Z,8.30
2023-05-09T08:23:03.684Z,8.52
2023-05-09T08:25:32.214Z,7.93
2023-05-09T08:28:01.981Z,8.10
2023-05-09T08:30:30.584Z,8.20
2023-05-09T08:32:59.156Z,8.27
2023-05-09T08:35:27.495Z,8.57
2023-05-09T08:37:55.956Z,8.35
2023-05-09T08:40:24.440Z,8.77
2023-05-09T08:42:53.397Z,8.53
2023-05-09T08:45:31.768Z,8.38
2023-05-09T08:48:00.921Z,9.40
2023-05-09T08:50:30.194Z,9.43
2023-05-09T08:52:58.765Z,8.90
2023-05-09T08:55:27.733Z,8.32
2023-05-09T08:57:56.327Z,9.32
2023-05-09T09:00:28.177Z,8.73
2023-05-09T09:03:00.075Z,8.50
2023-05-09T09:05:41.173Z,9.00
2023-05-09T09:08:12.405Z,8.63
2023-05-09T09:10:47.261Z,8.47
2023-05-09T09:13:18.170Z,8.80
2023-05-09T09:15:49.563Z,8.85
2023-05-09T09:18:22.137Z,9.15
2023-05-09T09:20:54.488Z,8.40
2023-05-09T09:23:26.510Z,8.95
2023-05-09T09:26:00.272Z,8.70
2023-05-09T09:28:29.614Z,8.80
2023-05-09T09:30:59.508Z,8.77
2023-05-09T09:33:29.880Z,9.40
2023-05-09T09:35:59.865Z,8.98
2023-05-09T09:38:28.448Z,8.70
2023-05-09T09:40:57.432Z,9.35
2023-05-09T09:43:29.899Z,8.77
2023-05-09T09:46:02.931Z,8.50
2023-05-09T09:48:34.835Z,9.38
2023-05-09T09:51:11.506Z,9.07
2023-05-09T09:53:44.434Z,9.20
2023-05-09T09:56:13.050Z,9.07
2023-05-09T09:58:41.482Z,8.80
2023-05-09T10:01:14.017Z,8.88
2023-05-09T10:03:44.282Z,8.80
2023-05-09T10:06:13.463Z,8.50
2023-05-09T10:08:42.962Z,8.32
2023-05-09T10:11:11.640Z,8.50
2023-05-09T10:13:40.617Z,8.50
2023-05-09T10:16:12.610Z,8.48
2023-05-09T10:18:43.763Z,8.65
2023-05-09T10:21:15.918Z,8.70
2023-05-09T10:23:47.628Z,8.80
2023-05-09T10:26:22.967Z,8.70
2023-05-09T10:28:56.103Z,8.75
2023-05-09T10:31:28.093Z,8.40
2023-05-09T10:33:57.289Z,8.77
2023-05-09T10:36:26.137Z,8.13
2023-05-09T10:38:56.610Z,8.35
2023-05-09T10:41:25.780Z,8.38
2023-05-09T10:43:56.724Z,8.43
2023-05-09T10:46:27.573Z,9.23
2023-05-09T10:48:56.579Z,9.95
2023-05-09T10:51:26.146Z,9.57
2023-05-09T10:53:56.061Z,9.88
2023-05-09T10:56:26.591Z,9.70
2023-05-09T10:58:55.804Z,8.90
2023-05-09T11:01:35.485Z,9.70
2023-05-09T11:04:12.705Z,8.55
2023-05-09T11:06:49.580Z,9.00
2023-05-09T11:09:29.257Z,8.15
2023-05-09T11:11:59.134Z,8.70
2023-05-09T11:14:31.768Z,9.10
2023-05-09T11:17:03.971Z,9.10
2023-05-09T11:19:37.407Z,8.75
2023-05-09T11:22:15.200Z,8.40
2023-05-09T11:24:47.381Z,8.60
2023-05-09T11:27:17.074Z,8.17
2023-05-09T11:29:47.489Z,8.07
2023-05-09T11:32:17.718Z,8.40
2023-05-09T11:34:46.499Z,8.57
2023-05-09T11:37:17.988Z,8.50
2023-05-09T11:40:01.125Z,8.77
2023-05-09T11:42:30.676Z,8.68
2023-05-09T11:45:00.058Z,8.43
2023-05-09T11:47:31.095Z,8.75
2023-05-09T11:49:59.535Z,8.20
2023-05-09T11:52:27.988Z,8.45
2023-05-09T11:54:56.504Z,8.00
2023-05-09T11:57:24.991Z,8.30
2023-05-09T11:59:54.022Z,8.40
2023-05-09T12:02:24.548Z,8.23
2023-05-09T12:04:55.155Z,8.52
2023-05-09T12:07:23.535Z,8.70
2023-05-09T12:09:52.836Z,8.73
2023-05-09T12:12:21.798Z,8.85
2023-05-09T12:14:50.733Z,8.75
2023-05-09T12:17:19.133Z,8.88
2023-05-09T12:19:48.356Z,9.20
2023-05-09T12:22:18.090Z,9.15
2023-05-09T12:24:46.624Z,9.32
2023-05-09T12:27:15.122Z,8.80
2023-05-09T12:29:46.153Z,8.50
2023-05-09T12:32:15.277Z,9.00
2023-05-09T12:34:45.590Z,9.05
2023-05-09T12:37:20.390Z,9.25
2023-05-09T12:40:04.322Z,9.27
2023-05-09T12:42:33.072Z,9.05
2023-05-09T12:45:03.365Z,8.90
2023-05-09T12:47:33.159Z,9.38
2023-05-09T12:50:03.428Z,9.43
2023-05-09T12:52:46.909Z,9.70
2023-05-09T12:55:23.057Z,10.15
2023-05-09T12:58:00.313Z,9.13
2023-05-09T13:00:29.253Z,9.70
2023-05-09T13:02:57.989Z,9.88
2023-05-09T13:05:26.401Z,9.57
2023-05-09T13:07:58.701Z,9.68
2023-05-09T13:10:29.014Z,9.93
2023-05-09T13:12:57.558Z,10.35
2023-05-09T13:15:26.915Z,9.68
2023-05-09T13:17:57.055Z,10.20
2023-05-09T13:20:25.616Z,9.27
2023-05-09T13:22:55.610Z,9.45
2023-05-09T13:25:24.088Z,9.85
2023-05-09T13:27:52.540Z,9.48
2023-05-09T13:30:21.132Z,9.23
2023-05-09T13:32:49.744Z,9.45
2023-05-09T13:35:18.382Z,9.15
2023-05-09T13:37:46.816Z,9.55
2023-05-09T13:40:17.127Z,10.18
2023-05-09T13:42:45.957Z,10.00
2023-05-09T13:45:14.544Z,9.43
2023-05-09T13:47:43.266Z,10.00
2023-05-09T13:50:12.740Z,10.18
2023-05-09T13:52:41.434Z,9.70
2023-05-09T13:55:10.234Z,10.13
2023-05-09T13:57:40.082Z,10.15
2023-05-09T14:00:09.701Z,9.93
2023-05-09T14:02:41.406Z,9.98
2023-05-09T14:05:10.392Z,9.40
2023-05-09T14:07:38.812Z,9.75
2023-05-09T14:10:11.851Z,10.23
2023-05-09T14:12:44.595Z,9.80
2023-05-09T14:15:13.210Z,10.07
2023-05-09T14:17:41.731Z,10.07
2023-05-09T14:20:10.768Z,10.00
2023-05-09T14:22:39.165Z,9.60
2023-05-09T14:25:07.884Z,10.07
2023-05-09T14:27:37.321Z,9.83
2023-05-09T14:30:08.804Z,9.97
2023-05-09T14:32:37.318Z,10.33
2023-05-09T14:35:06.317Z,10.10
2023-05-09T14:37:34.735Z,9.67
2023-05-09T14:40:05.756Z,10.13
2023-05-09T14:42:34.353Z,10.07
2023-05-09T14:45:02.728Z,9.73
2023-05-09T14:47:32.455Z,10.00
2023-05-09T14:50:00.843Z,9.57
2023-05-09T14:52:29.722Z,9.53
2023-05-09T14:55:00.011Z,9.70
2023-05-09T14:57:29.042Z,11.33
2023-05-09T15:00:03.104Z,11.40
2023-05-09T15:02:39.132Z,9.70
2023-05-09T15:05:08.264Z,9.70
2023-05-09T15:07:37.030Z,10.53
2023-05-09T15:10:05.978Z,12.23
2023-05-09T15:12:34.512Z,11.00
2023-05-09T15:15:14.922Z,9.90
2023-05-09T15:17:45.268Z,10.10
2023-05-09T15:20:16.496Z,9.70
2023-05-09T15:22:45.720Z,11.10
2023-05-09T15:25:14.726Z,9.80
2023-05-09T15:27:43.414Z,9.80
2023-05-09T15:30:12.540Z,10.60
2023-05-09T15:32:41.315Z,9.87
2023-05-09T15:35:11.509Z,10.63
2023-05-09T15:37:40.204Z,8.80
2023-05-09T15:40:09.527Z,9.50
2023-05-09T15:42:38.712Z,9.17
2023-05-09T15:45:07.723Z,10.03
2023-05-09T15:47:36.300Z,9.83
2023-05-09T15:50:04.864Z,10.57
2023-05-09T15:52:34.595Z,10.20
2023-05-09T15:55:03.618Z,10.90
2023-05-09T15:57:32.020Z,9.80
2023-05-09T16:00:00.419Z,9.30
2023-05-09T16:02:29.112Z,9.00
2023-05-09T16:04:57.578Z,9.60
2023-05-09T16:07:27.351Z,9.10
2023-05-09T16:09:57.109Z,9.10
2023-05-09T16:12:25.468Z,9.80
2023-05-09T16:14:54.298Z,9.77
2023-05-09T16:17:22.880Z,9.87
2023-05-09T16:19:51.303Z,9.07
2023-05-09T16:22:19.661Z,10.00
2023-05-09T16:24:49.144Z,9.93
2023-05-09T16:27:19.051Z,9.70
2023-05-09T16:29:47.430Z,9.00
2023-05-09T16:32:16.065Z,9.00
2023-05-09T16:34:44.494Z,10.17
2023-05-09T16:37:12.934Z,10.63
2023-05-09T16:39:41.419Z,9.73
2023-05-09T16:42:09.855Z,9.37
2023-05-09T16:44:39.641Z,10.57
2023-05-09T16:47:08.106Z,9.83
2023-05-09T16:49:36.593Z,11.17
2023-05-09T16:52:05.732Z,11.30
2023-05-09T16:54:34.174Z,10.23
2023-05-09T16:57:03.441Z,9.87
2023-05-09T16:59:32.895Z,10.00
2023-05-09T17:02:04.726Z,9.80
2023-05-09T17:04:34.753Z,9.30
2023-05-09T17:07:04.451Z,9.90
2023-05-09T17:09:33.639Z,9.80
2023-05-09T17:12:02.557Z,9.87
2023-05-09T17:14:31.142Z,9.87
2023-05-09T17:16:59.765Z,9.70
2023-05-09T17:19:29.524Z,9.97
2023-05-09T17:21:59.007Z,9.47
2023-05-09T17:24:27.469Z,10.17
2023-05-09T17:26:56.882Z,9.90
2023-05-09T17:29:26.927Z,9.47
2023-05-09T17:31:55.500Z,9.60
2023-05-09T17:34:24.093Z,10.17
2023-05-09T17:36:54.070Z,9.40
2023-05-09T17:39:22.545Z,9.83
2023-05-09T17:41:50.987Z,9.40
2023-05-09T17:44:19.510Z,9.40
2023-05-09T17:46:49.383Z,9.23
2023-05-09T17:49:18.431Z,9.67
2023-05-09T17:51:46.871Z,8.63
2023-05-09T17:54:19.076Z,10.00
2023-05-09T17:56:51.108Z,9.70
2023-05-09T17:59:19.588Z,9.70
2023-05-09T18:01:48.057Z,9.73
2023-05-09T18:04:16.918Z,10.10
2023-05-09T18:06:45.424Z,9.60
2023-05-09T18:09:13.891Z,10.07
2023-05-09T18:11:43.720Z,9.70
2023-05-09T18:14:12.973Z,10.00
2023-05-09T18:16:41.744Z,9.90
2023-05-09T18:19:10.242Z,9.23
2023-05-09T18:21:38.813Z,9.53
2023-05-09T18:24:09.193Z,9.50
2023-05-09T18:26:38.044Z,8.77
2023-05-09T18:29:07.874Z,8.53
2023-05-09T18:31:38.983Z,8.87
2023-05-09T18:34:07.454Z,9.27
2023-05-09T18:36:36.173Z,9.37
2023-05-09T18:39:04.857Z,8.90
2023-05-09T18:41:34.340Z,9.60
2023-05-09T18:44:02.784Z,9.23
2023-05-09T18:46:33.933Z,9.30
2023-05-09T18:49:04.025Z,9.43
2023-05-09T18:51:34.103Z,9.50
2023-05-09T18:54:02.549Z,9.70
2023-05-09T18:56:31.248Z,9.03
2023-05-09T18:58:59.630Z,9.83
2023-05-09T19:01:28.118Z,10.03
2023-05-09T19:03:58.325Z,9.80
2023-05-09T19:06:27.103Z,10.07
2023-05-09T19:08:55.425Z,9.90
2023-05-09T19:11:23.862Z,10.70
2023-05-09T19:13:53.125Z,9.77
2023-05-09T19:16:22.595Z,9.57
2023-05-09T19:18:51.496Z,10.53
2023-05-09T19:21:21.379Z,10.70
2023-05-09T19:23:50.075Z,10.20
2023-05-09T19:26:18.904Z,10.57
2023-05-09T19:28:48.130Z,9.73
2023-05-09T19:31:18.998Z,10.77
2023-05-09T19:33:49.677Z,9.97
2023-05-09T19:36:19.012Z,10.03
2023-05-09T19:38:48.701Z,10.80
2023-05-09T19:41:17.276Z,11.00
2023-05-09T19:43:46.666Z,9.93
2023-05-09T19:46:15.159Z,10.07
2023-05-09T19:48:43.671Z,9.97
2023-05-09T19:51:14.284Z,9.73
2023-05-09T19:53:42.673Z,10.10
2023-05-09T19:56:12.803Z,10.70
2023-05-09T19:58:41.162Z,10.33
2023-05-09T20:01:09.773Z,10.13
2023-05-09T20:03:41.143Z,10.40
2023-05-09T20:06:09.608Z,10.53
2023-05-09T20:08:38.035Z,11.60
2023-05-09T20:11:07.448Z,11.00
2023-05-09T20:13:37.109Z,10.73
2023-05-09T20:16:05.597Z,11.10
2023-05-09T20:18:34.329Z,11.10
2023-05-09T20:21:03.190Z,10.63
2023-05-09T20:23:32.120Z,11.33
2023-05-09T20:26:01.449Z,10.90
2023-05-09T20:28:29.791Z,10.67
2023-05-09T20:30:59.481Z,10.90
2023-05-09T20:33:27.901Z,10.60
2023-05-09T20:35:56.509Z,10.93
2023-05-09T20:38:24.930Z,11.33
2023-05-09T20:40:53.308Z,11.43
2023-05-09T20:43:21.659Z,11.37
2023-05-09T20:45:50.183Z,11.27
2023-05-09T20:48:22.548Z,11.53
2023-05-09T20:50:51.085Z,12.10
2023-05-09T20:53:19.434Z,12.07
2023-05-09T20:55:50.226Z,11.67
2023-05-09T20:58:18.882Z,12.30
2023-05-09T21:00:47.668Z,11.70
2023-05-09T21:03:16.202Z,11.80
2023-05-09T21:05:45.829Z,11.30
2023-05-09T21:08:14.167Z,11.07
2023-05-09T21:10:42.546Z,11.30
2023-05-09T21:13:10.822Z,11.67
2023-05-09T21:15:39.189Z,11.50
2023-05-09T21:18:07.545Z,12.30
2023-05-09T21:20:35.956Z,11.63
2023-05-09T21:23:05.638Z,12.57
2023-05-09T21:25:33.995Z,12.20
2023-05-09T21:28:02.424Z,12.13
2023-05-09T21:30:30.831Z,11.40
2023-05-09T21:32:59.225Z,11.20
2023-05-09T21:35:27.564Z,11.40
2023-05-09T21:37:55.882Z,12.10
2023-05-09T21:40:25.618Z,11.23
2023-05-09T21:42:53.975Z,11.53
2023-05-09T21:45:22.292Z,11.57
2023-05-09T21:47:50.751Z,12.30
2023-05-09T21:50:19.277Z,12.60
2023-05-09T21:52:47.553Z,13.07
2023-05-09T21:55:16.303Z,11.97
2023-05-09T21:57:45.889Z,11.87
2023-05-09T22:00:15.548Z,12.10
2023-05-09T22:02:44.153Z,12.10
2023-05-09T22:05:13.164Z,12.47
2023-05-09T22:07:41.521Z,12.33
2023-05-09T22:10:10.800Z,12.10
2023-05-09T22:12:39.464Z,12.63
2023-05-09T22:15:09.856Z,12.17
2023-05-09T22:17:39.441Z,12.47
2023-05-09T22:20:09.242Z,11.43
2023-05-09T22:22:37.652Z,12.63
2023-05-09T22:25:06.553Z,13.03
2023-05-09T22:27:34.941Z,12.53
2023-05-09T22:30:03.664Z,12.23
2023-05-09T22:32:33.546Z,12.43
2023-05-09T22:35:02.405Z,12.10
2023-05-09T22:37:30.945Z,12.90
2023-05-09T22:40:01.517Z,11.90
2023-05-09T22:42:30.361Z,12.17
2023-05-09T22:44:59.103Z,13.10
2023-05-09T22:47:27.520Z,12.10
2023-05-09T22:49:57.380Z,11.57
2023-05-09T22:52:26.458Z,12.13
2023-05-09T22:54:54.956Z,12.70
2023-05-09T22:57:24.014Z,12.27
2023-05-09T22:59:53.324Z,12.30
2023-05-09T23:02:22.412Z,12.00
2023-05-09T23:04:50.953Z,12.40
2023-05-09T23:07:20.620Z,12.67
2023-05-09T23:09:52.073Z,12.90
2023-05-09T23:12:20.504Z,12.53
2023-05-09T23:14:48.939Z,12.67
2023-05-09T23:17:17.280Z,12.00
2023-05-09T23:19:46.417Z,12.13
2023-05-09T23:22:14.935Z,11.97
2023-05-09T23:24:44.644Z,12.37
2023-05-09T23:27:13.074Z,12.40
2023-05-09T23:29:41.489Z,12.80
2023-05-09T23:32:09.937Z,12.30
2023-05-09T23:34:39.269Z,12.60
2023-05-09T23:37:07.712Z,12.40
2023-05-09T23:39:36.628Z,12.80
2023-05-09T23:42:06.431Z,12.83
2023-05-09T23:44:35.375Z,12.60
2023-05-09T23:47:03.893Z,12.73
2023-05-09T23:49:32.353Z,12.70
2023-05-09T23:52:00.689Z,12.57
2023-05-09T23:54:29.105Z,13.33
2023-05-09T23:56:57.873Z,12.77
2023-05-09T23:59:27.613Z,13.20
